Terminal Aerodrome Forecast
Issued by NWS

Home | Current Version | Previous Version | Graphics & Text | Print | Product List | Glossary On
Versions: 1 2 3 4 5 6 7 8 9 10 11 12 13 14 15 16 17 18 19 20 21 22 23 24 25 26 27 28 29 30 31 32 33 34 35 36 37 38 39 40 41 42 43 44 45 46 47 48 49 50
067
FTUS43 KLOT 172320
TAFGYY
TAF
KGYY 172320Z 1800/1824 26008KT 4SM -DZ BR SCT003 OVC004
      TEMPO 1800/1803 2SM -SHRA BR
     FM180600 27007KT 4SM BR SCT004 OVC006
     FM181700 24012KT P6SM SCT020
     FM182100 22012G17KT P6SM SCT150=

USA.gov is the U.S. government's official web portal to all federal, state and local government web resources and services.